Αναφορές Αεροδρομίων

 

KSJC - San Jose, California, USA
Distance from station: ΒΑ 14km
Ενημερώθηκε: 05/08/2020 04:53
Few Clouds
Few Clouds
 Ανεμος από ΒΒΔ
Ανεμος: ΒΒΔ 26 km/h
Θερμοκρασία: 21°C
Σημείο Δρόσου: 13°C
Υγρασία: 60%
Βαρόμετρο: 1014.2 hPa
Clouds: Few Clouds
Visibility: 16 km
Cloud details: Few Clouds 183 m
2020/08/05 01:53 KSJC 050153Z 33014KT 10SM FEW006 21/13 A2995 RMK AO2 SLP142 T02110133
KNUQ - Moffett Nas/Mtn, California, USA
Distance from station: Β 14km
Ενημερώθηκε: 04/08/2020 16:55
NOT Current

 Ανεμος από calm
Ανεμος: Απνοια
Θερμοκρασία: 16°C
Σημείο Δρόσου: 14°C
Υγρασία: 88%
Βαρόμετρο: 1015.2 hPa
Visibility: 16 km
2020/08/04 13:55 KNUQ 041355Z AUTO 00000KT 10SM 16/14 A2998 RMK AO2
 
KPAO - Palo Alto, California, USA
Distance from station: ΒΒΔ 23km
Ενημερώθηκε: 05/08/2020 04:47
Few Clouds
Few Clouds
 Ανεμος από ΒΔ
Ανεμος: ΒΔ 26 km/h
Θερμοκρασία: 21°C
Σημείο Δρόσου: 13°C
Υγρασία: 60%
Βαρόμετρο: 1014.6 hPa
Clouds: Few Clouds
Visibility: 16 km
Cloud details: Few Clouds 457 m
2020/08/05 01:47 KPAO 050147Z 31014KT 10SM FEW015 21/13 A2996 RMK LAST
KRHV - San Jose/Reid, California, USA
Distance from station: ΑΒΑ 19km
Ενημερώθηκε: 05/08/2020 04:47
Αίθριος
Αίθριος
 Ανεμος από ΒΔ
Ανεμος: ΒΔ 19 km/h
Θερμοκρασία: 22°C
Σημείο Δρόσου: 14°C
Υγρασία: 61%
Βαρόμετρο: 1014.2 hPa
Clouds: Αίθριος
Visibility: 16 km
2020/08/05 01:47 KRHV 050147Z 310010KT 10SM SKC 22/14 A2995
 
KOAK - Oakland, California, USA
Distance from station: ΒΒΔ 50km
Ενημερώθηκε: 05/08/2020 04:53
Σχεδόν νεφελώδης
Σχεδόν νεφελώδης
 Ανεμος από Δ
Ανεμος: Δ 22 km/h
Θερμοκρασία: 18°C
Σημείο Δρόσου: 13°C
Υγρασία: 73%
Βαρόμετρο: 1014.6 hPa
Clouds: Σχεδόν νεφελώδης
Visibility: 16 km
Cloud details: Few Clouds 274 m
Σχεδόν νεφελώδης 427 m
2020/08/05 01:53 KOAK 050153Z 27012KT 10SM FEW009 BKN014 18/13 A2996 RMK AO2 SLP144 T01830133
KSQL - San Carlos Airpo, California, USA
Distance from station: ΒΔ 34km
Ενημερώθηκε: 05/08/2020 04:58
Few Clouds
Few Clouds
 Ανεμος από ΝΔ
Ανεμος: ΝΔ 24 km/h, Ριπή: 31 km/h
Θερμοκρασία: 17°C
Σημείο Δρόσου: 14°C
Υγρασία: 83%
Βαρόμετρο: 1014.9 hPa
Clouds: Few Clouds
Visibility: 16 km
Cloud details: Few Clouds 274 m
2020/08/05 01:58 KSQL 050158Z 23013G17KT 10SM FEW009 17/14 A2997
 
KSFO - San Francisco, California, USA
Distance from station: ΒΔ 49km
Ενημερώθηκε: 05/08/2020 04:56
Σχεδόν νεφελώδης
Σχεδόν νεφελώδης
 Ανεμος από Δ
Ανεμος: Δ 19 km/h, Ριπή: 37 km/h
Θερμοκρασία: 18°C
Σημείο Δρόσου: 13°C
Υγρασία: 73%
Βαρόμετρο: 1014.2 hPa
Clouds: Σχεδόν νεφελώδης
Visibility: 16 km
Cloud details: Few Clouds 183 m
Σχεδόν νεφελώδης 457 m
2020/08/05 01:56 KSFO 050156Z 27010G20KT 10SM FEW006 BKN015 18/13 A2995 RMK AO2 SLP141 T01830128
KE16 - San Martin, California, USA
Distance from station: ΑΝΑ 43km
Ενημερώθηκε: 05/08/2020 04:50
Αίθριος
Αίθριος
 Ανεμος από ΝΑ
Ανεμος: ΝΑ 24 km/h
Θερμοκρασία: 19°C
Σημείο Δρόσου: 13°C
Υγρασία: 68%
Βαρόμετρο: 1014.9 hPa
Clouds: Αίθριος
Visibility: 16 km
2020/08/05 01:50 KE16 050150Z AUTO 13013KT 10SM CLR 19/13 A2997 RMK AO2 PWINO PNO
 
KWVI - Watsonville, California, USA
Distance from station: ΝΝΑ 44km
Ενημερώθηκε: 05/08/2020 04:53
Σχεδόν νεφελώδης
Σχεδόν νεφελώδης
 Ανεμος από Α
Ανεμος: Α 15 km/h
Θερμοκρασία: 17°C
Σημείο Δρόσου: 14°C
Υγρασία: 83%
Βαρόμετρο: 1015.2 hPa
Clouds: Σχεδόν νεφελώδης
Visibility: 16 km
Cloud details: Σχεδόν νεφελώδης 335 m
2020/08/05 01:53 KWVI 050153Z AUTO 08008KT 10SM BKN011 17/14 A2998 RMK AO2 SLP153 T01720139
KHAF - Half Moon Bay, California, USA
Distance from station: ΔΒΔ 50km
Ενημερώθηκε: 05/08/2020 05:15
Mist, Συννεφιά
Mist, Συννεφιά
 Ανεμος από ΔΒΔ
Ανεμος: ΔΒΔ 11 km/h
Θερμοκρασία: 15°C
Σημείο Δρόσου: 13°C
Υγρασία: 88%
Βαρόμετρο: 1015.9 hPa
Περίληψη: Mist
Clouds: Συννεφιά
Visibility: 8 km
Cloud details: Συννεφιά 305 m
2020/08/05 02:15 KHAF 050215Z AUTO 29006KT 5SM BR OVC010 15/13 A3000 RMK AO2
 
KHWD - Hayward, California, USA
Distance from station: Β 44km
Ενημερώθηκε: 05/08/2020 04:54
Σχεδόν νεφελώδης
Σχεδόν νεφελώδης
 Ανεμος από Δ
Ανεμος: Δ 24 km/h
Θερμοκρασία: 18°C
Σημείο Δρόσου: 13°C
Υγρασία: 73%
Βαρόμετρο: 1014.6 hPa
Clouds: Σχεδόν νεφελώδης
Visibility: 16 km
Cloud details: Σχεδόν νεφελώδης 366 m
2020/08/05 01:54 KHWD 050154Z 28013KT 10SM BKN012 18/13 A2996 RMK AO2 SLP154 T01830133
KLVK - Livermore, California, USA
Distance from station: ΒΒΑ 51km
Ενημερώθηκε: 05/08/2020 04:53
Αίθριος
Αίθριος
 Ανεμος από Δ
Ανεμος: Δ 24 km/h
Θερμοκρασία: 20°C
Σημείο Δρόσου: 13°C
Υγρασία: 64%
Βαρόμετρο: 1013.5 hPa
Clouds: Αίθριος
Visibility: 16 km
2020/08/05 01:53 KLVK 050153Z 28013KT 10SM CLR 20/13 A2993 RMK AO2 SLP132 T02000133